Terminal Aerodrome Forecast
Issued by NWS

Home | Current Version | Previous Version | Text Only | Print | Product List | Glossary On
Versions: 1 2 3 4 5 6 7 8 9 10 11 12 13 14 15 16 17
003
FTUS43 KICT 142335
TAFSLN
TAF
KSLN 142335Z 1500/1524 17009KT 4SM BR OVC008
     FM150300 18006KT 3SM -DZ BR OVC003
     FM150600 27006KT 6SM BR OVC008
     FM150800 32009KT P6SM OVC015
     FM151000 34011KT P6SM FEW120
     FM152200 36007KT P6SM FEW250=

USA.gov is the U.S. government's official web portal to all federal, state and local government web resources and services.